Time;durP1;ratioP1;P1;durP2;ratioP2;P2;SDS_P1;SDS_P2;PMS_P1;PMS_P2;Temp;Humidity;BMP_temperature;BMP_pressure;BME280_temperature;BME280_humidity;BME280_pressure;Samples;Min_cycle;Max_cycle;Signal;HPM_P1;HPM_P2
2020/12/03 00:01:46;;;;;;;10.95;8.85;;;5.90;99.90;;;;;;4958931;28;20656;-78
2020/12/03 00:04:13;;;;;;;10.18;9.10;;;5.90;99.90;;;;;;4958680;28;20175;-78
2020/12/03 00:06:49;;;;;;;10.52;8.43;;;5.90;99.90;;;;;;4974858;28;20298;-78
2020/12/03 00:09:17;;;;;;;10.20;8.45;;;6.00;99.90;;;;;;4974129;28;20265;-78
2020/12/03 00:11:53;;;;;;;11.48;9.52;;;6.00;99.90;;;;;;4974207;28;20253;-78
2020/12/03 00:14:20;;;;;;;12.23;10.05;;;5.90;99.90;;;;;;4974366;28;20179;-78
2020/12/03 00:16:47;;;;;;;11.73;9.55;;;5.90;99.90;;;;;;4974006;28;20217;-78
2020/12/03 00:19:18;;;;;;;10.43;9.13;;;5.90;99.90;;;;;;4989836;28;20171;-78
2020/12/03 00:22:01;;;;;;;9.90;8.55;;;6.00;99.90;;;;;;4958514;28;20558;-78
2020/12/03 00:24:43;;;;;;;9.30;7.70;;;6.00;99.90;;;;;;4959326;28;20237;-78
2020/12/03 00:27:15;;;;;;;8.40;7.57;;;6.00;99.90;;;;;;4962139;28;20198;-78
2020/12/03 00:29:42;;;;;;;9.27;8.32;;;6.00;99.90;;;;;;4973302;28;20194;-78
2020/12/03 00:32:09;;;;;;;10.57;8.65;;;6.00;99.90;;;;;;4974126;28;20214;-78
2020/12/03 00:34:35;;;;;;;10.95;9.00;;;6.00;99.90;;;;;;4991368;28;20198;-78
2020/12/03 00:37:01;;;;;;;10.60;7.63;;;6.00;99.90;;;;;;4995148;28;20195;-78
2020/12/03 00:39:37;;;;;;;10.73;8.55;;;6.00;99.90;;;;;;4994778;28;20232;-78
2020/12/03 00:42:18;;;;;;;10.40;7.78;;;6.00;99.90;;;;;;4977644;28;20203;-78
2020/12/03 00:44:53;;;;;;;7.85;6.85;;;6.10;99.90;;;;;;4976290;28;20178;-77
2020/12/03 00:47:22;;;;;;;9.85;7.45;;;6.00;99.90;;;;;;4959359;28;20226;-78
2020/12/03 00:49:53;;;;;;;8.10;6.57;;;6.10;99.90;;;;;;4962646;28;20179;-78
2020/12/03 00:52:31;;;;;;;10.05;8.25;;;6.10;99.90;;;;;;4940764;28;20214;-80
2020/12/03 00:55:02;;;;;;;13.80;10.73;;;6.10;99.90;;;;;;4957224;28;20179;-79
2020/12/03 00:57:30;;;;;;;9.27;7.90;;;6.00;99.90;;;;;;4940767;28;20227;-79
2020/12/03 00:59:56;;;;;;;9.68;8.68;;;6.10;99.90;;;;;;4943148;28;20180;-78
2020/12/03 01:02:28;;;;;;;9.88;8.90;;;6.10;99.90;;;;;;4961302;28;20164;-78
2020/12/03 01:05:07;;;;;;;12.07;9.68;;;6.10;99.90;;;;;;4962860;28;20171;-78
2020/12/03 01:07:39;;;;;;;9.65;8.10;;;6.00;99.90;;;;;;4974611;28;20299;-78
2020/12/03 01:10:22;;;;;;;10.95;8.38;;;6.00;99.90;;;;;;4943213;28;20254;-78
2020/12/03 01:12:51;;;;;;;12.93;9.25;;;6.00;99.90;;;;;;4942660;28;20217;-78
2020/12/03 01:15:20;;;;;;;8.50;6.72;;;6.00;99.90;;;;;;4958328;28;20228;-78
2020/12/03 01:17:48;;;;;;;8.18;6.70;;;6.00;99.90;;;;;;4941986;28;20199;-78
2020/12/03 01:20:20;;;;;;;9.38;7.95;;;6.00;99.90;;;;;;4958909;28;20510;-79
2020/12/03 01:22:52;;;;;;;11.05;8.93;;;6.10;99.90;;;;;;4942206;28;20183;-79
2020/12/03 01:25:23;;;;;;;10.15;8.68;;;6.10;99.90;;;;;;4942471;28;20175;-78
2020/12/03 01:27:50;;;;;;;9.68;8.43;;;6.10;99.90;;;;;;4958138;28;20199;-79
2020/12/03 01:30:22;;;;;;;7.70;6.90;;;6.10;99.90;;;;;;4941859;28;20565;-78
2020/12/03 01:32:57;;;;;;;10.50;7.10;;;6.10;99.90;;;;;;4942563;28;20210;-79
2020/12/03 01:35:27;;;;;;;10.10;8.10;;;6.20;99.90;;;;;;4942258;28;20175;-78
2020/12/03 01:37:56;;;;;;;11.82;9.60;;;6.20;99.90;;;;;;4957252;28;20204;-78
2020/12/03 01:40:34;;;;;;;11.85;9.20;;;6.10;99.90;;;;;;4957343;28;20198;-79
2020/12/03 01:43:05;;;;;;;11.10;9.40;;;6.10;99.90;;;;;;4943561;28;20187;-78
2020/12/03 01:46:02;;;;;;;10.70;8.35;;;6.10;99.90;;;;;;4942130;28;20183;-79
2020/12/03 01:49:02;;;;;;;8.38;7.20;;;6.10;99.90;;;;;;4957586;28;20267;-79
2020/12/03 01:51:35;;;;;;;10.57;8.93;;;6.10;99.90;;;;;;4941638;28;20175;-78
2020/12/03 01:54:12;;;;;;;10.13;8.88;;;6.00;99.90;;;;;;4973742;28;20226;-78
2020/12/03 01:57:03;;;;;;;7.00;6.30;;;6.10;99.90;;;;;;4941811;28;20182;-78
2020/12/03 01:59:42;;;;;;;9.20;7.93;;;6.10;99.90;;;;;;4957173;28;20283;-78
2020/12/03 02:02:12;;;;;;;9.82;8.80;;;6.10;99.90;;;;;;4957256;28;20245;-78
2020/12/03 02:04:42;;;;;;;9.05;8.10;;;6.10;99.90;;;;;;4957728;28;20175;-79
2020/12/03 02:07:13;;;;;;;8.27;7.38;;;6.10;99.90;;;;;;4973182;28;20195;-78
2020/12/03 02:09:39;;;;;;;8.52;7.53;;;6.10;99.90;;;;;;4940911;28;20226;-78
2020/12/03 02:12:06;;;;;;;8.50;7.70;;;6.10;99.90;;;;;;4939901;28;20612;-78
2020/12/03 02:14:32;;;;;;;8.20;7.38;;;6.00;99.90;;;;;;4956959;28;20160;-78
2020/12/03 02:16:59;;;;;;;11.27;9.13;;;6.10;99.90;;;;;;4941012;28;20196;-79
2020/12/03 02:19:31;;;;;;;10.38;8.50;;;6.10;99.90;;;;;;4961010;28;20179;-79
2020/12/03 02:22:07;;;;;;;12.70;8.88;;;6.10;99.90;;;;;;4941221;28;20276;-78
2020/12/03 02:24:41;;;;;;;11.60;9.27;;;6.00;99.90;;;;;;4973156;28;20229;-78
2020/12/03 02:27:09;;;;;;;9.48;7.45;;;6.10;99.90;;;;;;4940893;28;20195;-78
2020/12/03 02:29:35;;;;;;;12.38;8.32;;;6.10;99.90;;;;;;4972440;28;20179;-79
2020/12/03 02:32:02;;;;;;;12.43;8.05;;;6.10;99.90;;;;;;4956816;28;20203;-79
2020/12/03 02:34:28;;;;;;;9.10;8.20;;;6.10;99.90;;;;;;4940681;28;20176;-79
2020/12/03 02:36:56;;;;;;;10.13;9.00;;;6.10;99.90;;;;;;4940725;28;20188;-77
2020/12/03 02:39:23;;;;;;;9.80;7.65;;;6.10;99.90;;;;;;4940564;28;20611;-79
2020/12/03 02:41:49;;;;;;;10.93;9.63;;;6.10;99.90;;;;;;4972675;28;20724;-79
2020/12/03 02:44:16;;;;;;;11.50;10.00;;;6.10;99.90;;;;;;4956461;28;20176;-78
2020/12/03 02:46:42;;;;;;;9.63;8.05;;;6.10;99.90;;;;;;4956477;28;20596;-78
2020/12/03 02:49:09;;;;;;;10.70;8.35;;;6.10;99.90;;;;;;4972365;28;20176;-78
2020/12/03 02:51:40;;;;;;;10.73;8.35;;;6.10;99.90;;;;;;4956465;28;20743;-79
2020/12/03 02:54:11;;;;;;;9.68;7.55;;;6.10;99.90;;;;;;4956673;28;20175;-79
2020/12/03 02:56:40;;;;;;;9.00;7.80;;;6.10;99.90;;;;;;4943988;28;20262;-79
2020/12/03 02:59:08;;;;;;;12.77;9.18;;;6.20;99.90;;;;;;4956098;28;20548;-79
2020/12/03 03:01:39;;;;;;;9.18;7.78;;;6.20;99.90;;;;;;4956143;28;20175;-77
2020/12/03 03:04:16;;;;;;;9.82;8.82;;;6.10;99.90;;;;;;4941602;28;20183;-78
2020/12/03 03:06:42;;;;;;;9.50;7.87;;;6.20;99.90;;;;;;4940274;28;20266;-77
2020/12/03 03:09:08;;;;;;;9.90;7.57;;;6.20;99.90;;;;;;4971945;28;20951;-77
2020/12/03 03:11:35;;;;;;;7.50;6.80;;;6.20;99.90;;;;;;4956098;28;20330;-77
2020/12/03 03:14:01;;;;;;;9.80;8.25;;;6.30;99.90;;;;;;4955988;28;20603;-77
2020/12/03 03:16:29;;;;;;;8.98;8.05;;;6.30;99.90;;;;;;4956025;28;20207;-77
2020/12/03 03:18:55;;;;;;;9.27;7.85;;;6.30;99.90;;;;;;4939611;28;20195;-78
2020/12/03 03:21:22;;;;;;;8.38;7.03;;;6.30;99.90;;;;;;4956093;28;20172;-77
2020/12/03 03:23:48;;;;;;;11.68;7.88;;;6.30;99.90;;;;;;4955598;28;20176;-77
2020/12/03 03:26:15;;;;;;;8.57;7.57;;;6.30;99.90;;;;;;4955998;28;20255;-77
2020/12/03 03:28:42;;;;;;;8.98;7.13;;;6.30;99.90;;;;;;4971307;28;20618;-77
2020/12/03 03:31:08;;;;;;;7.68;6.20;;;6.30;99.90;;;;;;4955845;28;20186;-78
2020/12/03 03:33:34;;;;;;;7.65;6.45;;;6.40;99.90;;;;;;4960863;28;20238;-78
2020/12/03 03:36:07;;;;;;;10.75;9.15;;;6.40;99.90;;;;;;4940046;28;20175;-80
2020/12/03 03:38:39;;;;;;;7.53;6.75;;;6.40;99.90;;;;;;4939408;28;20216;-80
2020/12/03 03:41:05;;;;;;;11.25;8.50;;;6.40;99.90;;;;;;4956010;28;20180;-79
2020/12/03 03:43:31;;;;;;;8.23;7.03;;;6.40;99.90;;;;;;4939853;28;20266;-79
2020/12/03 03:46:03;;;;;;;8.70;7.38;;;6.50;99.90;;;;;;4956112;28;20537;-79
2020/12/03 03:48:36;;;;;;;9.35;7.93;;;6.50;99.90;;;;;;4971293;28;20218;-79
2020/12/03 03:51:03;;;;;;;11.57;8.77;;;6.50;99.90;;;;;;4955921;28;20180;-78
2020/12/03 03:53:29;;;;;;;7.45;6.60;;;6.40;99.90;;;;;;4955591;28;20207;-79
2020/12/03 03:55:58;;;;;;;9.43;7.20;;;6.50;99.90;;;;;;4939974;28;20286;-79
2020/12/03 03:58:24;;;;;;;8.50;6.65;;;6.50;99.90;;;;;;4954742;28;20192;-79
2020/12/03 04:00:50;;;;;;;8.02;6.70;;;6.50;99.90;;;;;;4971388;28;20159;-77
2020/12/03 04:03:19;;;;;;;8.17;6.60;;;6.60;99.90;;;;;;4955036;28;20180;-79
2020/12/03 04:05:50;;;;;;;7.00;6.30;;;6.50;99.90;;;;;;4972742;28;20175;-79
2020/12/03 04:08:17;;;;;;;7.70;5.97;;;6.50;99.90;;;;;;4955072;28;20219;-79
2020/12/03 04:10:47;;;;;;;7.70;6.60;;;6.60;99.90;;;;;;4942918;28;20694;-78
2020/12/03 04:13:20;;;;;;;8.50;7.18;;;6.60;99.90;;;;;;4970975;28;20207;-79
2020/12/03 04:16:03;;;;;;;9.07;7.30;;;6.50;99.90;;;;;;4971628;28;20168;-78
2020/12/03 04:18:29;;;;;;;8.98;7.30;;;6.50;99.90;;;;;;4954598;28;20191;-78
2020/12/03 04:20:57;;;;;;;8.93;7.17;;;6.50;99.90;;;;;;4954751;28;20167;-78
2020/12/03 04:23:24;;;;;;;9.27;6.72;;;6.50;99.90;;;;;;4954704;28;20183;-77
2020/12/03 04:25:50;;;;;;;7.93;7.10;;;6.60;99.90;;;;;;4939132;28;20176;-78
2020/12/03 04:28:17;;;;;;;7.10;6.30;;;6.50;99.90;;;;;;4954781;28;20278;-78
2020/12/03 04:30:44;;;;;;;7.47;5.95;;;6.60;99.90;;;;;;4955029;28;20271;-78
2020/12/03 04:33:10;;;;;;;7.60;6.00;;;6.50;99.90;;;;;;4954557;28;20303;-78
2020/12/03 04:35:37;;;;;;;7.70;6.55;;;6.60;99.90;;;;;;4970559;28;20185;-78
2020/12/03 04:38:05;;;;;;;9.20;7.15;;;6.60;99.90;;;;;;4954306;28;20732;-78
2020/12/03 04:40:35;;;;;;;6.82;6.07;;;6.60;99.90;;;;;;4970721;28;20190;-78
2020/12/03 04:43:27;;;;;;;6.30;5.60;;;6.60;99.90;;;;;;4954767;28;20616;-79
2020/12/03 04:46:39;;;;;;;7.28;6.43;;;6.60;99.90;;;;;;4939169;28;20301;-79
2020/12/03 04:49:24;;;;;;;7.75;6.90;;;6.60;99.90;;;;;;4957803;28;20628;-79
2020/12/03 04:52:10;;;;;;;9.32;6.88;;;6.60;99.90;;;;;;4954653;28;20226;-79
2020/12/03 04:54:53;;;;;;;9.52;6.65;;;6.60;99.90;;;;;;4970684;28;20168;-79
2020/12/03 04:57:34;;;;;;;7.18;5.60;;;6.60;99.90;;;;;;4954222;28;20826;-79
2020/12/03 05:00:32;;;;;;;7.88;7.07;;;6.60;99.90;;;;;;4954796;28;20168;-79
2020/12/03 05:03:18;;;;;;;6.38;5.60;;;6.60;99.90;;;;;;4887793;28;20219;-79
2020/12/03 05:06:11;;;;;;;6.05;5.25;;;6.50;99.90;;;;;;4938723;28;20194;-79
2020/12/03 05:08:51;;;;;;;8.73;6.45;;;6.50;99.90;;;;;;4953588;28;20564;-79
2020/12/03 05:11:50;;;;;;;8.18;7.32;;;6.60;99.90;;;;;;4969028;28;20163;-79
2020/12/03 05:14:45;;;;;;;6.35;5.32;;;6.50;99.90;;;;;;4971056;28;20168;-79
2020/12/03 05:17:29;;;;;;;6.90;5.75;;;6.50;99.90;;;;;;4953649;28;20272;-79
2020/12/03 05:20:32;;;;;;;9.30;6.90;;;6.50;99.90;;;;;;4953378;28;20207;-78
2020/12/03 05:23:23;;;;;;;6.45;5.35;;;6.60;99.90;;;;;;4971835;28;20565;-79
2020/12/03 05:26:00;;;;;;;7.13;5.93;;;6.60;99.90;;;;;;4944882;28;20207;-79
2020/12/03 05:28:51;;;;;;;8.65;6.95;;;6.60;99.90;;;;;;4970909;28;20446;-78
2020/12/03 05:31:23;;;;;;;6.78;6.03;;;6.50;99.90;;;;;;4955860;28;20627;-79
2020/12/03 05:33:56;;;;;;;7.50;6.05;;;6.60;99.90;;;;;;4939330;28;20215;-78
2020/12/03 05:36:24;;;;;;;7.40;5.55;;;6.50;99.90;;;;;;4954998;28;20172;-78
2020/12/03 05:38:51;;;;;;;7.50;6.38;;;6.60;99.90;;;;;;4956115;28;20199;-79
2020/12/03 05:41:18;;;;;;;9.90;7.18;;;6.60;99.90;;;;;;4955448;28;20658;-80
2020/12/03 05:43:52;;;;;;;7.10;5.88;;;6.50;99.90;;;;;;4956498;28;20553;-79
2020/12/03 05:46:21;;;;;;;8.75;6.55;;;6.50;99.90;;;;;;4957300;28;20180;-79
2020/12/03 05:48:59;;;;;;;8.13;7.30;;;6.50;99.90;;;;;;4942297;28;20207;-79
2020/12/03 05:51:31;;;;;;;8.50;6.43;;;6.40;99.90;;;;;;4945257;28;20176;-79
2020/12/03 05:54:03;;;;;;;12.75;8.88;;;6.50;99.90;;;;;;4969450;28;20203;-79
2020/12/03 05:56:37;;;;;;;9.80;8.38;;;6.40;99.90;;;;;;4967924;28;20180;-79
2020/12/03 05:59:25;;;;;;;8.52;6.45;;;6.40;99.90;;;;;;4966571;28;20178;-79
2020/12/03 06:02:16;;;;;;;8.50;7.60;;;6.40;99.90;;;;;;4970342;28;20175;-79
2020/12/03 06:04:49;;;;;;;11.50;8.93;;;6.30;99.90;;;;;;4968292;28;20266;-79
2020/12/03 06:07:46;;;;;;;10.55;7.93;;;6.40;99.90;;;;;;4980745;28;20274;-79
2020/12/03 06:10:12;;;;;;;11.25;9.45;;;6.40;99.90;;;;;;4942240;28;20604;-79
2020/12/03 06:12:57;;;;;;;8.40;7.33;;;6.30;99.90;;;;;;4973861;28;20445;-78
2020/12/03 06:15:44;;;;;;;9.18;7.82;;;6.30;99.90;;;;;;4974900;28;20633;-78
2020/12/03 06:18:31;;;;;;;9.35;6.38;;;6.30;99.90;;;;;;4973207;28;20195;-78
2020/12/03 06:21:16;;;;;;;9.98;8.98;;;6.30;99.90;;;;;;4956286;28;20709;-78
2020/12/03 06:24:21;;;;;;;10.50;7.93;;;6.30;99.90;;;;;;4973226;28;20168;-78
2020/12/03 06:27:28;;;;;;;7.85;5.95;;;6.30;99.90;;;;;;4956992;28;20179;-78
2020/12/03 06:30:29;;;;;;;9.27;7.20;;;6.30;99.90;;;;;;4864261;29;20182;-78
2020/12/03 06:32:59;;;;;;;7.03;5.80;;;6.30;99.90;;;;;;4974400;28;20210;-78
2020/12/03 06:35:50;;;;;;;9.60;7.78;;;6.40;99.90;;;;;;4974414;28;20725;-78
2020/12/03 06:38:52;;;;;;;7.80;6.70;;;6.30;99.90;;;;;;4956745;28;20203;-78
2020/12/03 06:41:37;;;;;;;7.38;6.43;;;6.30;99.90;;;;;;4959999;28;20270;-79
2020/12/03 06:44:22;;;;;;;8.27;6.70;;;6.30;99.90;;;;;;4973463;28;20182;-78
2020/12/03 06:47:18;;;;;;;8.38;7.47;;;6.30;99.90;;;;;;4973543;28;20871;-77
2020/12/03 06:50:05;;;;;;;10.95;8.30;;;6.40;99.90;;;;;;4936838;28;20184;-77
2020/12/03 06:52:57;;;;;;;9.18;7.80;;;6.20;99.90;;;;;;4937387;29;20662;-77
2020/12/03 06:55:29;;;;;;;11.63;9.00;;;6.30;99.90;;;;;;4944653;29;20220;-78
2020/12/03 06:58:07;;;;;;;9.85;7.93;;;6.30;99.90;;;;;;4936072;29;20561;-78
2020/12/03 07:01:01;;;;;;;8.73;7.32;;;6.30;99.90;;;;;;4937180;29;20172;-78
2020/12/03 07:03:51;;;;;;;8.05;7.25;;;6.30;99.90;;;;;;4935687;29;20279;-80
2020/12/03 07:06:23;;;;;;;7.85;6.50;;;6.20;99.90;;;;;;4936627;29;20215;-81
2020/12/03 07:09:25;;;;;;;10.43;7.97;;;6.30;99.90;;;;;;4955966;28;20573;-79
2020/12/03 07:12:08;;;;;;;8.57;6.97;;;6.30;99.90;;;;;;4960661;28;20238;-80
2020/12/03 07:15:11;;;;;;;7.13;6.43;;;6.30;99.90;;;;;;4924075;28;20186;-80
2020/12/03 07:18:12;;;;;;;10.85;7.18;;;6.30;99.90;;;;;;4977403;28;20598;-80
2020/12/03 07:21:02;;;;;;;8.07;7.18;;;6.30;99.90;;;;;;4956619;28;20191;-80
2020/12/03 07:24:02;;;;;;;8.65;7.13;;;6.20;99.90;;;;;;4956009;28;20175;-77
2020/12/03 07:26:57;;;;;;;9.30;7.85;;;6.20;99.90;;;;;;4923984;28;20183;-78
2020/12/03 07:30:12;;;;;;;;;;;;;;;;;;;;;
2020/12/03 07:33:04;;;;;;;9.15;6.63;;;6.20;99.90;;;;;;4939540;28;20729;-78
2020/12/03 07:36:07;;;;;;;8.70;7.80;;;6.20;99.90;;;;;;4940120;28;20672;-78
2020/12/03 07:38:39;;;;;;;12.55;7.07;;;6.20;99.90;;;;;;4951399;29;20212;-77
2020/12/03 07:41:07;;;;;;;8.70;7.10;;;6.20;99.90;;;;;;4936043;29;20199;-78
2020/12/03 07:43:48;;;;;;;9.60;7.57;;;6.20;99.90;;;;;;4920768;29;20188;-80
2020/12/03 07:46:29;;;;;;;8.25;7.43;;;6.20;99.90;;;;;;4937666;28;20191;-82
2020/12/03 07:48:56;;;;;;;9.65;7.78;;;6.20;99.90;;;;;;4968410;28;20925;-82
2020/12/03 07:51:23;;;;;;;10.82;8.52;;;6.30;99.90;;;;;;4922513;29;20180;-82
2020/12/03 07:54:15;;;;;;;7.72;6.72;;;6.30;99.90;;;;;;4941056;29;20184;-82
2020/12/03 07:56:44;;;;;;;8.98;7.50;;;6.30;99.90;;;;;;4970560;28;20183;-83
2020/12/03 07:59:22;;;;;;;6.55;5.85;;;6.40;99.90;;;;;;4953059;29;20176;-82
2020/12/03 08:01:53;;;;;;;8.70;6.88;;;6.40;99.90;;;;;;4970525;28;20559;-80
2020/12/03 08:04:21;;;;;;;8.98;6.93;;;6.40;99.90;;;;;;4936267;29;20203;-81
2020/12/03 08:07:13;;;;;;;10.25;7.00;;;6.40;99.90;;;;;;4969274;28;20231;-81
2020/12/03 08:09:44;;;;;;;10.73;7.60;;;6.30;99.90;;;;;;4929308;29;20188;-81
2020/12/03 08:12:14;;;;;;;6.55;5.60;;;6.40;99.90;;;;;;4968414;28;20546;-80
2020/12/03 08:14:43;;;;;;;7.95;6.38;;;6.40;99.90;;;;;;4940230;28;20179;-82
2020/12/03 08:17:15;;;;;;;7.97;6.78;;;6.30;99.90;;;;;;4956417;28;20732;-80
2020/12/03 08:19:42;;;;;;;10.40;8.23;;;6.30;99.90;;;;;;4956129;28;20227;-81
2020/12/03 08:22:26;;;;;;;9.93;7.63;;;6.30;99.90;;;;;;4939984;28;20186;-80
2020/12/03 08:25:04;;;;;;;10.75;7.60;;;6.30;99.90;;;;;;4973016;28;20176;-80
2020/12/03 08:27:30;;;;;;;8.38;7.45;;;6.30;99.90;;;;;;4955848;28;20191;-81
2020/12/03 08:29:56;;;;;;;8.00;6.85;;;6.40;99.90;;;;;;4973502;28;20180;-81
2020/12/03 08:32:22;;;;;;;10.60;8.18;;;6.40;99.90;;;;;;4967763;28;20624;-82
2020/12/03 08:34:48;;;;;;;10.90;8.97;;;6.40;99.90;;;;;;4972849;28;20164;-83
2020/12/03 08:37:19;;;;;;;8.32;6.90;;;6.30;99.90;;;;;;4972664;28;20565;-83
2020/12/03 08:39:51;;;;;;;11.45;8.65;;;6.30;99.90;;;;;;4955445;28;20182;-83
2020/12/03 08:42:18;;;;;;;12.65;8.43;;;6.30;99.90;;;;;;4974678;28;20172;-82
2020/12/03 08:44:45;;;;;;;8.75;7.75;;;6.30;99.90;;;;;;4955903;28;20179;-82
2020/12/03 08:47:38;;;;;;;9.10;8.15;;;6.30;99.90;;;;;;4973311;28;20620;-82
2020/12/03 08:50:13;;;;;;;8.80;6.38;;;6.30;99.90;;;;;;4923978;28;20267;-82
2020/12/03 08:52:40;;;;;;;8.68;7.78;;;6.30;99.90;;;;;;4941164;28;20296;-82
2020/12/03 08:55:06;;;;;;;9.45;8.55;;;6.30;99.90;;;;;;4956201;28;20195;-82
2020/12/03 08:57:36;;;;;;;8.77;7.13;;;6.30;99.90;;;;;;4940296;28;20765;-82
2020/12/03 09:00:05;;;;;;;8.80;7.65;;;6.40;99.90;;;;;;4939068;28;20271;-81
2020/12/03 09:02:32;;;;;;;10.73;8.35;;;6.40;99.90;;;;;;4956507;28;20234;-82
2020/12/03 09:05:00;;;;;;;9.13;6.65;;;6.30;99.90;;;;;;4957940;28;20181;-82
2020/12/03 09:07:31;;;;;;;9.52;7.50;;;6.40;99.90;;;;;;4977454;28;20203;-83
2020/12/03 09:09:59;;;;;;;10.63;8.82;;;6.40;99.90;;;;;;4962324;28;20292;-83
2020/12/03 09:12:35;;;;;;;10.60;8.55;;;6.30;99.90;;;;;;4955238;29;20200;-83
2020/12/03 09:15:04;;;;;;;7.55;6.05;;;6.30;99.90;;;;;;4954157;29;20203;-83
2020/12/03 09:17:34;;;;;;;9.00;7.65;;;6.30;99.90;;;;;;4955157;29;20259;-83
2020/12/03 09:20:08;;;;;;;9.75;7.10;;;6.40;99.90;;;;;;4938008;29;20320;-85
2020/12/03 09:22:35;;;;;;;9.90;8.77;;;6.40;99.90;;;;;;4959798;29;20176;-85
2020/12/03 09:25:05;;;;;;;9.52;6.97;;;6.40;99.90;;;;;;4942062;29;20295;-82
2020/12/03 09:27:33;;;;;;;10.25;7.97;;;6.40;99.90;;;;;;4942832;29;20200;-82
2020/12/03 09:30:03;;;;;;;9.20;7.78;;;6.50;99.90;;;;;;4940921;29;20602;-82
2020/12/03 09:32:30;;;;;;;10.43;8.63;;;6.50;99.90;;;;;;4958417;29;20732;-82
2020/12/03 09:34:57;;;;;;;9.50;7.97;;;6.60;99.90;;;;;;4957089;28;20179;-82
2020/12/03 09:37:23;;;;;;;10.02;8.25;;;6.60;99.90;;;;;;4957170;29;20254;-82
2020/12/03 09:39:50;;;;;;;10.60;7.85;;;6.50;99.90;;;;;;4957686;28;20275;-81
2020/12/03 09:42:17;;;;;;;12.38;8.25;;;6.60;99.90;;;;;;4957948;28;20184;-81
2020/12/03 09:44:48;;;;;;;13.73;10.18;;;6.60;99.90;;;;;;4957556;28;20263;-80
2020/12/03 09:47:18;;;;;;;12.80;8.98;;;6.50;99.90;;;;;;4961215;29;20189;-83
2020/12/03 09:49:45;;;;;;;10.85;8.75;;;6.60;99.90;;;;;;4958596;28;20529;-83
2020/12/03 09:52:12;;;;;;;9.15;7.88;;;6.60;99.90;;;;;;4943072;29;20200;-84
2020/12/03 09:54:39;;;;;;;12.95;9.85;;;6.70;99.90;;;;;;4958689;28;20188;-82
2020/12/03 09:57:09;;;;;;;9.18;7.97;;;6.80;99.90;;;;;;4974044;28;20196;-82
2020/12/03 09:59:37;;;;;;;11.07;8.27;;;6.80;99.90;;;;;;4940439;29;20172;-80
2020/12/03 10:02:12;;;;;;;10.63;7.70;;;6.80;99.90;;;;;;4957742;29;20165;-80
2020/12/03 10:05:33;;;;;;;13.20;8.65;;;6.90;99.90;;;;;;4975008;28;20190;-81
2020/12/03 10:08:38;;;;;;;9.38;7.15;;;6.90;99.90;;;;;;4922495;29;20293;-81
2020/12/03 10:11:28;;;;;;;9.23;7.18;;;7.00;99.90;;;;;;4930467;28;20589;-81
2020/12/03 10:14:12;;;;;;;7.95;6.32;;;7.00;99.90;;;;;;4976546;28;20616;-80
2020/12/03 10:16:43;;;;;;;10.13;7.05;;;7.10;99.90;;;;;;4960370;28;20164;-82
2020/12/03 10:19:11;;;;;;;10.85;8.57;;;7.20;99.90;;;;;;4995365;28;20187;-81
2020/12/03 10:21:44;;;;;;;10.77;8.90;;;7.20;99.90;;;;;;4963848;28;20172;-80
2020/12/03 10:24:20;;;;;;;9.73;7.90;;;7.10;99.90;;;;;;4997179;28;20184;-80
2020/12/03 10:27:09;;;;;;;12.10;8.85;;;7.20;99.90;;;;;;4979105;28;20282;-79
2020/12/03 10:29:47;;;;;;;8.45;7.18;;;7.20;99.90;;;;;;4959012;29;20176;-82
2020/12/03 10:32:22;;;;;;;12.40;8.40;;;7.20;99.90;;;;;;4950436;29;20229;-83
2020/12/03 10:34:48;;;;;;;7.85;6.38;;;7.20;99.90;;;;;;4961246;29;20164;-83
2020/12/03 10:37:30;;;;;;;9.00;7.43;;;7.30;99.90;;;;;;4971932;29;20196;-83
2020/12/03 10:40:22;;;;;;;11.27;7.93;;;7.20;99.90;;;;;;4962647;29;20168;-81
2020/12/03 10:43:10;;;;;;;10.82;7.22;;;7.20;99.90;;;;;;4943245;29;20457;-81
2020/12/03 10:45:42;;;;;;;12.10;7.05;;;7.30;99.90;;;;;;4962531;29;20203;-83
2020/12/03 10:48:34;;;;;;;9.05;7.30;;;7.30;99.90;;;;;;4960175;29;20287;-81
2020/12/03 10:51:07;;;;;;;11.13;8.23;;;7.40;99.90;;;;;;4955139;29;20176;-79
2020/12/03 10:53:33;;;;;;;7.80;5.93;;;7.40;99.90;;;;;;4925172;29;20203;-82
2020/12/03 10:56:03;;;;;;;10.32;7.68;;;7.50;99.90;;;;;;4941248;29;20308;-82
2020/12/03 10:58:37;;;;;;;10.27;8.18;;;7.50;99.90;;;;;;4940743;29;20196;-80
2020/12/03 11:01:12;;;;;;;8.98;7.25;;;7.60;99.90;;;;;;4927977;29;20324;-79
2020/12/03 11:03:39;;;;;;;8.60;7.45;;;7.60;99.90;;;;;;4924849;29;20275;-74
2020/12/03 11:06:06;;;;;;;7.93;7.03;;;7.60;99.90;;;;;;4923888;29;20185;-77
2020/12/03 11:08:39;;;;;;;9.70;6.97;;;7.60;99.90;;;;;;4939463;29;20243;-80
2020/12/03 11:11:07;;;;;;;8.38;6.43;;;7.60;99.90;;;;;;4922902;29;20172;-80
2020/12/03 11:13:33;;;;;;;9.38;6.25;;;7.60;99.90;;;;;;4953655;29;20200;-80
2020/12/03 11:16:02;;;;;;;6.68;5.97;;;7.60;99.90;;;;;;4954605;29;20165;-79
2020/12/03 11:18:37;;;;;;;7.30;5.90;;;7.60;99.90;;;;;;4953444;29;20219;-75
2020/12/03 11:21:12;;;;;;;9.20;5.90;;;7.60;99.90;;;;;;4920861;29;20182;-75
2020/12/03 11:23:54;;;;;;;6.35;5.40;;;7.60;99.90;;;;;;4952942;29;20172;-75
2020/12/03 11:26:21;;;;;;;7.50;5.40;;;7.60;99.90;;;;;;4953470;29;20187;-75
2020/12/03 11:28:46;;;;;;;6.88;5.80;;;7.50;99.90;;;;;;4937336;29;20217;-75
2020/12/03 11:31:12;;;;;;;9.30;5.23;;;7.50;99.90;;;;;;4935926;29;20192;-75
2020/12/03 11:33:43;;;;;;;7.70;5.65;;;7.50;99.90;;;;;;4952318;29;20612;-75
2020/12/03 11:36:18;;;;;;;6.65;5.00;;;7.50;99.90;;;;;;4953755;29;20203;-75
2020/12/03 11:38:54;;;;;;;6.07;4.15;;;7.60;99.90;;;;;;4954849;29;20579;-75
2020/12/03 11:41:54;;;;;;;7.80;5.75;;;7.60;99.90;;;;;;4953786;29;20180;-75
2020/12/03 11:49:26;;;;;;;6.05;5.03;;;7.60;99.90;;;;;;4935538;29;20184;-75
2020/12/03 11:51:52;;;;;;;5.20;4.70;;;7.60;99.90;;;;;;4953099;29;20287;-75
2020/12/03 11:57:00;;;;;;;6.82;5.22;;;7.60;99.90;;;;;;1411589;26;21453;-78
2020/12/03 11:59:39;;;;;;;5.55;3.90;;;7.60;99.90;;;;;;5011120;28;20166;-79
2020/12/03 12:02:32;;;;;;;8.27;5.70;;;7.60;99.90;;;;;;4993103;28;20178;-78
2020/12/03 12:05:06;;;;;;;7.70;5.68;;;7.70;99.90;;;;;;4998250;28;20194;-78
2020/12/03 12:07:51;;;;;;;5.97;5.32;;;7.60;99.90;;;;;;4958465;28;20589;-77
2020/12/03 12:10:28;;;;;;;7.70;5.80;;;7.70;99.90;;;;;;4973927;28;20171;-78
2020/12/03 12:12:59;;;;;;;7.15;5.80;;;7.80;99.90;;;;;;4970710;28;20199;-78
2020/12/03 12:15:49;;;;;;;9.70;5.20;;;7.80;99.90;;;;;;4957319;28;20211;-78
2020/12/03 12:18:16;;;;;;;5.90;4.70;;;7.80;99.90;;;;;;4970448;28;20251;-77
2020/12/03 12:20:48;;;;;;;9.07;6.40;;;7.90;99.90;;;;;;4954428;28;20246;-78
2020/12/03 12:23:16;;;;;;;6.90;5.90;;;7.90;99.90;;;;;;4954463;28;20263;-79
2020/12/03 12:25:44;;;;;;;9.43;6.10;;;8.00;99.90;;;;;;4954273;28;20227;-78
2020/12/03 12:28:31;;;;;;;8.52;7.00;;;8.00;99.90;;;;;;4971512;28;20171;-79
2020/12/03 12:31:03;;;;;;;6.80;5.07;;;7.90;99.90;;;;;;4971425;28;20178;-79
2020/12/03 12:33:34;;;;;;;7.95;7.10;;;7.90;99.90;;;;;;4970024;28;20290;-78
2020/12/03 12:36:03;;;;;;;6.05;5.38;;;7.90;99.90;;;;;;4970424;28;20868;-78
2020/12/03 12:38:32;;;;;;;8.02;6.03;;;7.90;99.90;;;;;;4970011;28;20629;-79
2020/12/03 12:41:08;;;;;;;6.80;5.20;;;7.90;99.90;;;;;;4954385;28;20231;-79
2020/12/03 12:43:46;;;;;;;6.13;4.90;;;8.00;99.90;;;;;;4970160;28;20183;-77
2020/12/03 12:46:22;;;;;;;8.02;5.03;;;8.10;99.90;;;;;;4954169;28;20174;-77
2020/12/03 12:48:53;;;;;;;6.95;5.35;;;8.20;99.90;;;;;;4969670;28;20637;-77
2020/12/03 12:51:26;;;;;;;7.38;6.22;;;8.20;99.90;;;;;;4970208;28;20171;-78
2020/12/03 12:54:07;;;;;;;8.73;6.30;;;8.30;99.90;;;;;;4969696;28;20606;-78
2020/12/03 12:57:04;;;;;;;8.82;7.15;;;8.30;99.90;;;;;;4953299;28;20179;-79
2020/12/03 12:59:43;;;;;;;;;;;;;;;;;;;;;
2020/12/03 13:02:12;;;;;;;7.80;6.82;;;8.30;99.90;;;;;;4971315;28;20167;-78
2020/12/03 13:04:48;;;;;;;9.00;6.70;;;8.30;99.90;;;;;;4971594;28;20203;-79
2020/12/03 13:07:17;;;;;;;8.25;7.22;;;8.30;99.90;;;;;;4954558;28;20254;-78
2020/12/03 13:09:53;;;;;;;11.50;9.02;;;8.30;99.90;;;;;;4970017;28;20171;-78
2020/12/03 13:12:28;;;;;;;7.05;6.35;;;8.20;99.90;;;;;;4973016;28;20683;-79
2020/12/03 13:15:04;;;;;;;10.70;7.30;;;8.20;99.90;;;;;;4958043;28;20788;-79
2020/12/03 13:17:44;;;;;;;12.07;8.40;;;8.20;99.90;;;;;;4990448;28;20686;-79
2020/12/03 13:20:10;;;;;;;7.25;5.90;;;8.30;99.90;;;;;;4990220;28;20225;-78
2020/12/03 13:22:36;;;;;;;9.65;6.95;;;8.30;99.90;;;;;;4957006;28;20226;-78
2020/12/03 13:25:10;;;;;;;7.68;6.32;;;8.20;99.90;;;;;;4974006;28;20202;-79
2020/12/03 13:27:36;;;;;;;8.80;7.10;;;8.20;99.90;;;;;;4972836;28;20201;-79
2020/12/03 13:30:09;;;;;;;8.90;7.10;;;8.20;99.90;;;;;;4972608;28;20590;-78
2020/12/03 13:32:37;;;;;;;7.10;6.05;;;8.20;99.90;;;;;;4972892;28;20221;-79
2020/12/03 13:35:34;;;;;;;10.65;8.15;;;8.20;99.90;;;;;;4973019;28;20191;-79
2020/12/03 13:38:00;;;;;;;10.43;7.97;;;8.10;99.90;;;;;;4991512;28;20218;-79
2020/12/03 13:40:53;;;;;;;8.95;7.65;;;8.10;99.90;;;;;;4971812;28;20218;-79
2020/12/03 13:43:27;;;;;;;8.68;6.90;;;8.10;99.90;;;;;;4990377;28;20507;-78
2020/12/03 13:46:03;;;;;;;6.70;6.10;;;8.20;99.90;;;;;;4974260;28;20546;-78